createdAt,value
2018-12-27T00:00:28.200Z,1009.11
2018-12-27T00:01:38.274Z,1009.14
2018-12-27T00:02:54.809Z,1009.13
2018-12-27T00:04:04.801Z,1009.12
2018-12-27T00:05:14.887Z,1009.18
2018-12-27T00:06:24.463Z,1009.2
2018-12-27T00:07:34.303Z,1009.19
2018-12-27T00:08:44.363Z,1009.25
2018-12-27T00:09:54.183Z,1009.21
2018-12-27T00:11:04.246Z,1009.29
2018-12-27T00:12:14.320Z,1009.27
2018-12-27T00:13:24.417Z,1009.3
2018-12-27T00:14:34.519Z,1009.29
2018-12-27T00:15:44.626Z,1009.29
2018-12-27T00:16:54.450Z,1009.31
2018-12-27T00:18:04.521Z,1009.36
2018-12-27T00:19:14.596Z,1009.3
2018-12-27T00:20:24.442Z,1009.34
2018-12-27T00:21:34.502Z,1009.4
2018-12-27T00:22:44.323Z,1009.38
2018-12-27T00:23:54.459Z,1009.4
2018-12-27T00:25:04.535Z,1009.43
2018-12-27T00:26:14.599Z,1009.39
2018-12-27T00:27:24.692Z,1009.45
2018-12-27T00:28:34.752Z,1009.44
2018-12-27T00:29:44.821Z,1009.43
2018-12-27T00:30:54.873Z,1009.46
2018-12-27T00:32:04.954Z,1009.48
2018-12-27T00:33:15.045Z,1009.48
2018-12-27T00:34:25.110Z,1009.5
2018-12-27T00:35:35.177Z,1009.47
2018-12-27T00:36:45.268Z,1009.48
2018-12-27T00:37:55.366Z,1009.51
2018-12-27T00:39:06.483Z,1009.46
2018-12-27T00:40:16.553Z,1009.5
2018-12-27T00:41:26.618Z,1009.51
2018-12-27T00:42:36.690Z,1009.49
2018-12-27T00:43:46.523Z,1009.4
2018-12-27T00:44:56.357Z,1009.5
2018-12-27T00:46:06.466Z,1009.43
2018-12-27T00:47:16.530Z,1009.5
2018-12-27T00:48:26.350Z,1009.49
2018-12-27T00:49:36.423Z,1009.45
2018-12-27T00:50:46.261Z,1009.47
2018-12-27T00:51:56.070Z,1009.51
2018-12-27T00:53:06.204Z,1009.53
2018-12-27T00:54:16.280Z,1009.56
2018-12-27T00:55:26.093Z,1009.56
2018-12-27T00:56:36.171Z,1009.56
2018-12-27T00:57:45.968Z,1009.53
2018-12-27T00:58:56.036Z,1009.51
2018-12-27T01:00:06.154Z,1009.49
2018-12-27T01:01:16.988Z,1009.53
2018-12-27T01:02:26.814Z,1009.47
2018-12-27T01:03:36.677Z,1009.49
2018-12-27T01:04:46.854Z,1009.52
2018-12-27T01:05:56.919Z,1009.53
2018-12-27T01:07:06.714Z,1009.52
2018-12-27T01:08:16.790Z,1009.51
2018-12-27T01:09:26.881Z,1009.54
2018-12-27T01:10:37.000Z,1009.53
2018-12-27T01:11:46.791Z,1009.51
2018-12-27T01:12:56.858Z,1009.63
2018-12-27T01:14:06.670Z,1009.56
2018-12-27T01:15:16.729Z,1009.61
2018-12-27T01:16:26.785Z,1009.6
2018-12-27T01:17:36.595Z,1009.61
2018-12-27T01:18:46.681Z,1009.57
2018-12-27T01:19:56.487Z,1009.6
2018-12-27T01:21:07.603Z,1009.55
2018-12-27T01:22:17.413Z,1009.58
2018-12-27T01:23:27.218Z,1009.56
2018-12-27T01:24:37.274Z,1009.57
2018-12-27T01:25:47.100Z,1009.61
2018-12-27T01:26:56.891Z,1009.58
2018-12-27T01:28:06.980Z,1009.59
2018-12-27T01:29:16.523Z,1009.64
2018-12-27T01:30:26.337Z,1009.58
2018-12-27T01:31:36.420Z,1009.62
2018-12-27T01:32:53.579Z,1009.61
2018-12-27T01:34:03.643Z,1009.57
2018-12-27T01:35:13.693Z,1009.6
2018-12-27T01:36:23.506Z,1009.59
2018-12-27T01:37:33.584Z,1009.61
2018-12-27T01:38:43.641Z,1009.52
2018-12-27T01:39:53.699Z,1009.54
2018-12-27T01:41:04.009Z,1009.62
2018-12-27T01:42:13.797Z,1009.59
2018-12-27T01:43:23.849Z,1009.56
2018-12-27T01:44:33.666Z,1009.61
2018-12-27T01:45:43.715Z,1009.54
2018-12-27T01:46:53.769Z,1009.55
2018-12-27T01:48:03.826Z,1009.61
2018-12-27T01:49:13.635Z,1009.6
2018-12-27T01:50:23.695Z,1009.56
2018-12-27T01:51:33.798Z,1009.56
2018-12-27T01:52:43.599Z,1009.63
2018-12-27T01:53:53.405Z,1009.61
2018-12-27T01:55:03.464Z,1009.64
2018-12-27T01:56:12.997Z,1009.63
2018-12-27T01:57:22.795Z,1009.55
2018-12-27T01:58:32.876Z,1009.57
2018-12-27T01:59:42.677Z,1009.56
2018-12-27T02:00:52.728Z,1009.55
2018-12-27T02:02:02.304Z,1009.55
2018-12-27T02:03:12.378Z,1009.6
2018-12-27T02:04:29.300Z,1009.56
2018-12-27T02:05:39.367Z,1009.52
2018-12-27T02:06:49.475Z,1009.5
2018-12-27T02:07:59.533Z,1009.49
2018-12-27T02:09:09.384Z,1009.48
2018-12-27T02:10:19.467Z,1009.46
2018-12-27T02:11:29.534Z,1009.41
2018-12-27T02:12:39.334Z,1009.38
2018-12-27T02:13:49.140Z,1009.36
2018-12-27T02:14:58.703Z,1009.4
2018-12-27T02:16:08.772Z,1009.35
2018-12-27T02:17:18.840Z,1009.35
2018-12-27T02:18:28.887Z,1009.33
2018-12-27T02:19:38.943Z,1009.31
2018-12-27T02:20:49.044Z,1009.36
2018-12-27T02:21:59.112Z,1009.3
2018-12-27T02:23:09.622Z,1009.32
2018-12-27T02:24:19.435Z,1009.3
2018-12-27T02:25:29.499Z,1009.26
2018-12-27T02:26:39.587Z,1009.26
2018-12-27T02:27:49.408Z,1009.23
2018-12-27T02:28:59.487Z,1009.27
2018-12-27T02:30:09.568Z,1009.22
2018-12-27T02:31:19.642Z,1009.19
2018-12-27T02:32:29.803Z,1009.18
2018-12-27T02:33:39.870Z,1009.19
2018-12-27T02:34:49.950Z,1009.22
2018-12-27T02:35:59.999Z,1009.19
2018-12-27T02:37:10.074Z,1009.25
2018-12-27T02:38:20.139Z,1009.17
2018-12-27T02:39:30.208Z,1009.21
2018-12-27T02:40:40.740Z,1009.16
2018-12-27T02:41:50.812Z,1009.18
2018-12-27T02:43:00.887Z,1009.14
2018-12-27T02:44:11.017Z,1009.17
2018-12-27T02:45:21.113Z,1009.16
2018-12-27T02:46:31.183Z,1009.2
2018-12-27T02:47:41.250Z,1009.11
2018-12-27T02:48:51.325Z,1009.13
2018-12-27T02:50:01.683Z,1009.08
2018-12-27T02:51:11.782Z,1009.09
2018-12-27T02:52:21.606Z,1009.06
2018-12-27T02:53:31.414Z,1009.08
2018-12-27T02:54:40.970Z,1009.08
2018-12-27T02:55:51.031Z,1009.06
2018-12-27T02:57:00.841Z,1009.09
2018-12-27T02:58:10.912Z,1009.12
2018-12-27T02:59:20.981Z,1009.04
2018-12-27T03:00:30.789Z,1009.09
2018-12-27T03:01:40.855Z,1009.06
2018-12-27T03:02:50.921Z,1009.07
2018-12-27T03:34:52.693Z,1008.73
2018-12-27T03:36:02.737Z,1008.79
2018-12-27T03:37:12.815Z,1008.72
2018-12-27T03:38:22.896Z,1008.77
2018-12-27T03:39:32.960Z,1008.75
2018-12-27T03:40:43.015Z,1008.77
2018-12-27T03:41:53.088Z,1008.78
2018-12-27T03:43:02.891Z,1008.8
2018-12-27T03:44:12.956Z,1008.82
2018-12-27T03:45:23.026Z,1008.81
2018-12-27T03:46:33.080Z,1008.84
2018-12-27T03:47:43.144Z,1008.85
2018-12-27T03:48:53.205Z,1008.86
2018-12-27T03:50:03.266Z,1008.86
2018-12-27T03:51:13.323Z,1008.93
2018-12-27T03:52:23.148Z,1008.87
2018-12-27T03:53:33.214Z,1008.87
2018-12-27T03:54:43.288Z,1008.87
2018-12-27T03:55:53.347Z,1008.86
2018-12-27T03:57:03.720Z,1008.89
2018-12-27T03:58:13.782Z,1008.89
2018-12-27T03:59:23.837Z,1008.93
2018-12-27T04:00:33.657Z,1008.9
2018-12-27T04:01:43.736Z,1008.9
2018-12-27T04:02:53.785Z,1008.92
2018-12-27T04:04:03.597Z,1008.95
2018-12-27T04:05:13.672Z,1008.97
2018-12-27T04:06:23.732Z,1008.96
2018-12-27T04:07:33.802Z,1008.89
2018-12-27T04:08:43.873Z,1008.92
2018-12-27T04:09:53.706Z,1008.87
2018-12-27T04:11:03.525Z,1008.95
2018-12-27T04:12:13.586Z,1008.98
2018-12-27T04:13:23.672Z,1008.97
2018-12-27T04:14:33.728Z,1008.94
2018-12-27T04:15:43.787Z,1008.9
2018-12-27T04:16:53.860Z,1008.86
2018-12-27T04:18:03.945Z,1008.9
2018-12-27T04:19:13.994Z,1008.88
2018-12-27T04:20:24.077Z,1008.9
2018-12-27T04:21:34.139Z,1008.98
2018-12-27T04:22:44.198Z,1008.98
2018-12-27T04:23:54.273Z,1008.91
2018-12-27T04:25:04.103Z,1008.98
2018-12-27T04:26:14.220Z,1008.91
2018-12-27T04:27:24.012Z,1008.93
2018-12-27T04:28:34.079Z,1008.9
2018-12-27T04:29:44.136Z,1008.94
2018-12-27T04:30:53.938Z,1008.94
2018-12-27T04:32:03.755Z,1008.98
2018-12-27T04:33:13.555Z,1009.01
2018-12-27T04:34:23.351Z,1009.01
2018-12-27T04:35:33.167Z,1009.05
2018-12-27T04:36:42.981Z,1009.01
2018-12-27T04:37:52.804Z,1008.99
2018-12-27T04:39:02.866Z,1009.03
2018-12-27T04:40:12.665Z,1009.04
2018-12-27T04:41:22.725Z,1009.05
2018-12-27T04:42:32.782Z,1009.08
2018-12-27T04:43:42.949Z,1009.07
2018-12-27T04:44:53.025Z,1009.08
2018-12-27T04:46:03.102Z,1009.11
2018-12-27T04:47:13.167Z,1009.08
2018-12-27T04:48:23.030Z,1009.1
2018-12-27T04:49:33.097Z,1009.13
2018-12-27T04:50:43.166Z,1009.15
2018-12-27T04:51:53.218Z,1009.2
2018-12-27T04:53:03.287Z,1009.17
2018-12-27T04:54:13.081Z,1009.23
2018-12-27T04:55:23.135Z,1009.22
2018-12-27T04:56:32.980Z,1009.26
2018-12-27T04:57:43.029Z,1009.28
2018-12-27T04:58:52.851Z,1009.3
2018-12-27T05:00:02.757Z,1009.31
2018-12-27T05:01:13.580Z,1009.32
2018-12-27T05:02:23.706Z,1009.3
2018-12-27T05:03:33.769Z,1009.36
2018-12-27T05:04:43.581Z,1009.32
2018-12-27T05:05:53.649Z,1009.31
2018-12-27T05:07:03.694Z,1009.28
2018-12-27T05:08:13.748Z,1009.27
2018-12-27T05:09:23.828Z,1009.3
2018-12-27T05:10:33.626Z,1009.29
2018-12-27T05:11:43.700Z,1009.32
2018-12-27T05:12:53.490Z,1009.36
2018-12-27T05:14:03.555Z,1009.35
2018-12-27T05:15:13.615Z,1009.34
2018-12-27T05:16:23.706Z,1009.33
2018-12-27T05:17:33.521Z,1009.33
2018-12-27T05:18:43.449Z,1009.41
2018-12-27T05:19:53.244Z,1009.39
2018-12-27T05:21:03.946Z,1009.39
2018-12-27T05:22:14.109Z,1009.44
2018-12-27T05:23:23.891Z,1009.43
2018-12-27T05:24:33.946Z,1009.42
2018-12-27T05:25:43.842Z,1009.45
2018-12-27T05:26:53.389Z,1009.44
2018-12-27T05:28:03.483Z,1009.47
2018-12-27T05:29:13.567Z,1009.43
2018-12-27T05:30:23.671Z,1009.47
2018-12-27T05:31:33.707Z,1009.45
2018-12-27T05:32:43.515Z,1009.45
2018-12-27T05:33:53.334Z,1009.43
2018-12-27T05:35:03.842Z,1009.43
2018-12-27T05:36:13.496Z,1009.42
2018-12-27T05:37:23.363Z,1009.39
2018-12-27T05:38:33.159Z,1009.37
2018-12-27T05:39:42.723Z,1009.39
2018-12-27T05:40:52.801Z,1009.38
2018-12-27T05:42:02.866Z,1009.35
2018-12-27T05:43:12.686Z,1009.36
2018-12-27T05:44:22.759Z,1009.37
2018-12-27T05:45:32.912Z,1009.33
2018-12-27T05:46:42.981Z,1009.34
2018-12-27T05:47:53.054Z,1009.31
2018-12-27T05:49:04.522Z,1009.3
2018-12-27T05:50:14.318Z,1009.26
2018-12-27T05:51:24.394Z,1009.28
2018-12-27T05:52:34.496Z,1009.23
2018-12-27T05:53:44.533Z,1009.22
2018-12-27T05:54:54.611Z,1009.21
2018-12-27T05:56:04.477Z,1009.21
2018-12-27T05:57:14.282Z,1009.21
2018-12-27T05:58:24.338Z,1009.18
2018-12-27T05:59:34.424Z,1009.2
2018-12-27T06:00:44.488Z,1009.17
2018-12-27T06:01:54.019Z,1009.16
2018-12-27T06:03:03.822Z,1009.18
2018-12-27T06:04:13.378Z,1009.13
2018-12-27T06:05:23.438Z,1009.12
2018-12-27T06:06:33.491Z,1009.11
2018-12-27T06:07:43.310Z,1009.1
2018-12-27T06:08:53.189Z,1009.13
2018-12-27T06:10:02.749Z,1009.13
2018-12-27T06:11:12.812Z,1009.18
2018-12-27T06:12:22.882Z,1009.22
2018-12-27T06:13:32.688Z,1009.26
2018-12-27T06:14:42.742Z,1009.21
2018-12-27T06:15:52.537Z,1009.27
2018-12-27T06:17:02.694Z,1009.29
2018-12-27T06:18:12.799Z,1009.25
2018-12-27T06:19:22.874Z,1009.26
2018-12-27T06:20:32.949Z,1009.26
2018-12-27T06:21:43.079Z,1009.25
2018-12-27T06:22:53.142Z,1009.2
2018-12-27T06:24:03.188Z,1009.21
2018-12-27T06:25:12.747Z,1009.16
2018-12-27T06:26:22.806Z,1009.16
2018-12-27T06:27:33.104Z,1009.12
2018-12-27T06:28:43.159Z,1009.12
2018-12-27T06:29:53.217Z,1009.11
2018-12-27T06:31:03.147Z,1009.23
2018-12-27T06:32:13.220Z,1009.12
2018-12-27T06:33:23.274Z,1009.11
2018-12-27T06:34:33.093Z,1009.13
2018-12-27T06:35:49.122Z,1009.11
2018-12-27T06:36:58.920Z,1009.11
2018-12-27T06:38:08.961Z,1009.11
2018-12-27T06:39:19.023Z,1009.11
2018-12-27T06:40:29.107Z,1009.08
2018-12-27T06:41:39.165Z,1009.11
2018-12-27T06:42:49.223Z,1009.12
2018-12-27T06:43:59.328Z,1009.08
2018-12-27T06:45:09.379Z,1009.08
2018-12-27T06:46:19.442Z,1009.11
2018-12-27T06:47:29.566Z,1009.08
2018-12-27T06:48:39.651Z,1009.09
2018-12-27T06:49:49.716Z,1009.05
2018-12-27T06:50:59.788Z,1009.08
2018-12-27T06:52:09.581Z,1009.08
2018-12-27T06:53:19.401Z,1009.08
2018-12-27T06:54:29.441Z,1009.07
2018-12-27T06:55:39.515Z,1009.01
2018-12-27T06:56:49.338Z,1008.99
2018-12-27T06:57:59.394Z,1009
2018-12-27T06:59:09.455Z,1008.97
2018-12-27T07:00:19.523Z,1009
2018-12-27T07:01:29.575Z,1008.97
2018-12-27T07:02:39.656Z,1008.99
2018-12-27T07:03:49.707Z,1008.99
2018-12-27T07:04:59.768Z,1008.98
2018-12-27T07:06:09.597Z,1009.04
2018-12-27T07:07:19.664Z,1009.04
2018-12-27T07:08:29.730Z,1009.03
2018-12-27T07:09:39.806Z,1008.94
2018-12-27T07:10:49.847Z,1008.92
2018-12-27T07:12:00.057Z,1008.95
2018-12-27T07:13:10.314Z,1008.91
2018-12-27T07:14:20.403Z,1008.94
2018-12-27T07:15:30.467Z,1008.96
2018-12-27T07:16:40.530Z,1008.93
2018-12-27T07:17:50.329Z,1009.01
2018-12-27T07:19:00.410Z,1008.99
2018-12-27T07:20:10.241Z,1009.02
2018-12-27T07:21:20.304Z,1009.02
2018-12-27T07:22:30.441Z,1009.01
2018-12-27T07:23:40.009Z,1009.08
2018-12-27T07:24:50.080Z,1009.06
2018-12-27T07:25:59.624Z,1009.05
2018-12-27T07:27:09.435Z,1009.05
2018-12-27T07:28:19.585Z,1009.06
2018-12-27T07:29:29.674Z,1009.07
2018-12-27T07:30:39.738Z,1009.08
2018-12-27T07:31:49.790Z,1009.08
2018-12-27T07:32:59.859Z,1009.11
2018-12-27T07:34:09.750Z,1009.15
2018-12-27T07:35:19.536Z,1009.16
2018-12-27T07:36:29.621Z,1009.1
2018-12-27T07:37:39.690Z,1009.08
2018-12-27T07:38:49.535Z,1009.1
2018-12-27T07:39:59.654Z,1009.09
2018-12-27T07:41:09.732Z,1009.13
2018-12-27T07:42:19.572Z,1009.15
2018-12-27T07:43:29.376Z,1009.15
2018-12-27T07:44:39.427Z,1009.15
2018-12-27T07:45:49.491Z,1009.14
2018-12-27T07:46:59.030Z,1009.14
2018-12-27T07:48:09.108Z,1009.17
2018-12-27T07:49:19.185Z,1009.11
2018-12-27T07:50:29.269Z,1009.11
2018-12-27T07:51:39.331Z,1009.08
2018-12-27T07:52:49.158Z,1009.13
2018-12-27T07:53:59.217Z,1009.11
2018-12-27T07:55:09.271Z,1009.08
2018-12-27T07:56:19.320Z,1009.07
2018-12-27T07:57:29.382Z,1009.04
2018-12-27T07:58:39.430Z,1009.1
2018-12-27T07:59:49.508Z,1009.06
2018-12-27T08:00:59.566Z,1009.08
2018-12-27T08:02:09.637Z,1009.14
2018-12-27T08:03:19.759Z,1009.1
2018-12-27T08:04:29.551Z,1009.13
2018-12-27T08:05:39.673Z,1009.17
2018-12-27T08:06:49.731Z,1009.12
2018-12-27T08:07:59.798Z,1009.18
2018-12-27T08:09:09.849Z,1009.11
2018-12-27T08:10:19.910Z,1009.15
2018-12-27T08:11:29.724Z,1009.23
2018-12-27T08:12:39.808Z,1009.13
2018-12-27T08:13:49.889Z,1009.19
2018-12-27T08:14:59.959Z,1009.17
2018-12-27T08:16:09.780Z,1009.16
2018-12-27T08:17:19.856Z,1009.11
2018-12-27T08:18:29.909Z,1009.16
2018-12-27T08:19:39.749Z,1009.14
2018-12-27T08:20:49.567Z,1009.1
2018-12-27T08:21:59.632Z,1009.11
2018-12-27T08:23:09.703Z,1009.14
2018-12-27T08:24:19.785Z,1009.16
2018-12-27T08:25:29.834Z,1009.16
2018-12-27T08:26:39.887Z,1009.14
2018-12-27T08:27:49.953Z,1009.15
2018-12-27T08:29:00.012Z,1009.17
2018-12-27T08:30:09.821Z,1009.14
2018-12-27T08:31:19.616Z,1009.17
2018-12-27T08:32:29.662Z,1009.12
2018-12-27T08:33:39.705Z,1009.14
2018-12-27T08:34:49.829Z,1009.16
2018-12-27T08:35:59.912Z,1009.14
2018-12-27T08:37:09.966Z,1009.17
2018-12-27T08:38:19.811Z,1009.16
2018-12-27T08:39:29.878Z,1009.16
2018-12-27T08:40:39.949Z,1009.23
2018-12-27T08:41:50.009Z,1009.21
2018-12-27T08:43:00.068Z,1009.2
2018-12-27T08:44:10.150Z,1009.16
2018-12-27T08:45:20.234Z,1009.19
2018-12-27T08:46:30.298Z,1009.22
2018-12-27T08:47:40.124Z,1009.14
2018-12-27T08:48:50.184Z,1009.18
2018-12-27T08:49:59.999Z,1009.19
2018-12-27T08:51:10.070Z,1009.21
2018-12-27T08:52:19.882Z,1009.23
2018-12-27T08:53:29.954Z,1009.21
2018-12-27T08:54:40.031Z,1009.23
2018-12-27T08:55:49.836Z,1009.26
2018-12-27T08:56:59.893Z,1009.2
2018-12-27T08:58:09.948Z,1009.19
2018-12-27T08:59:20.015Z,1009.16
2018-12-27T09:00:30.072Z,1009.16
2018-12-27T09:01:40.836Z,1009.19
2018-12-27T09:02:50.952Z,1009.19
2018-12-27T09:04:01.077Z,1009.21
2018-12-27T09:05:10.873Z,1009.14
2018-12-27T09:06:26.681Z,1009.16
2018-12-27T09:07:36.746Z,1009.18
2018-12-27T09:08:46.587Z,1009.07
2018-12-27T09:09:56.675Z,1009.12
2018-12-27T09:11:06.846Z,1009.11
2018-12-27T09:12:16.913Z,1009.13
2018-12-27T09:13:26.974Z,1009.1
2018-12-27T09:14:37.051Z,1009.11
2018-12-27T09:15:47.121Z,1009.09
2018-12-27T09:16:57.219Z,1009.1
2018-12-27T09:18:07.404Z,1009.11
2018-12-27T09:19:17.208Z,1009.06
2018-12-27T09:20:27.269Z,1009.08
2018-12-27T09:21:36.832Z,1009.08
2018-12-27T09:22:46.901Z,1009.04
2018-12-27T09:23:56.980Z,1009.08
2018-12-27T09:25:06.814Z,1009.07
2018-12-27T09:26:16.892Z,1009.03
2018-12-27T09:27:26.701Z,1009.08
2018-12-27T09:28:36.767Z,1009.03
2018-12-27T09:29:46.825Z,1009.04
2018-12-27T09:30:56.883Z,1008.99
2018-12-27T09:32:06.953Z,1008.94
2018-12-27T09:33:17.034Z,1008.93
2018-12-27T09:34:27.154Z,1008.98
2018-12-27T09:35:36.959Z,1008.95
2018-12-27T09:36:47.081Z,1008.95
2018-12-27T09:37:57.908Z,1008.91
2018-12-27T09:39:07.729Z,1008.94
2018-12-27T09:40:17.819Z,1008.95
2018-12-27T09:41:27.881Z,1008.94
2018-12-27T09:42:37.697Z,1008.86
2018-12-27T09:43:47.787Z,1008.91
2018-12-27T09:44:57.883Z,1008.91
2018-12-27T09:46:07.946Z,1008.95
2018-12-27T09:47:18.051Z,1008.93
2018-12-27T09:48:28.195Z,1008.88
2018-12-27T09:49:38.025Z,1008.89
2018-12-27T09:50:48.091Z,1008.89
2018-12-27T09:52:01.966Z,1008.87
2018-12-27T09:53:11.931Z,1008.84
2018-12-27T09:54:21.998Z,1008.85
2018-12-27T09:55:32.142Z,1008.81
2018-12-27T09:56:42.010Z,1008.82
2018-12-27T09:57:52.079Z,1008.82
2018-12-27T09:59:02.152Z,1008.81
2018-12-27T10:00:12.255Z,1008.75
2018-12-27T10:01:22.745Z,1008.76
2018-12-27T10:02:32.556Z,1008.72
2018-12-27T10:03:42.691Z,1008.67
2018-12-27T10:04:52.744Z,1008.66
2018-12-27T10:06:04.510Z,1008.61
2018-12-27T10:07:14.713Z,1008.65
2018-12-27T10:08:24.795Z,1008.62
2018-12-27T10:09:34.884Z,1008.59
2018-12-27T10:10:44.982Z,1008.59
2018-12-27T10:11:54.803Z,1008.54
2018-12-27T10:13:05.176Z,1008.47
2018-12-27T10:14:15.272Z,1008.53
2018-12-27T10:15:25.343Z,1008.45
2018-12-27T10:16:35.414Z,1008.4
2018-12-27T10:17:45.477Z,1008.39
2018-12-27T10:18:55.308Z,1008.38
2018-12-27T10:20:04.867Z,1008.41
2018-12-27T10:21:14.939Z,1008.39
2018-12-27T10:22:25.007Z,1008.34
2018-12-27T10:23:36.046Z,1008.36
2018-12-27T10:24:46.106Z,1008.34
2018-12-27T10:25:56.185Z,1008.34
2018-12-27T10:27:06.241Z,1008.31
2018-12-27T10:28:16.312Z,1008.3
2018-12-27T10:29:27.960Z,1008.32
2018-12-27T10:30:38.149Z,1008.28
2018-12-27T10:31:48.236Z,1008.26
2018-12-27T10:32:58.307Z,1008.26
2018-12-27T10:34:09.371Z,1008.2
2018-12-27T10:35:19.185Z,1008.2
2018-12-27T10:36:29.248Z,1008.18
2018-12-27T10:37:39.299Z,1008.17
2018-12-27T10:38:49.373Z,1008.16
2018-12-27T10:39:59.455Z,1008.12
2018-12-27T10:41:09.569Z,1008.13
2018-12-27T10:42:19.766Z,1008.08
2018-12-27T10:43:29.835Z,1008.04
2018-12-27T10:44:39.666Z,1008.04
2018-12-27T10:45:49.479Z,1008.04
2018-12-27T10:46:59.293Z,1007.98
2018-12-27T10:48:09.387Z,1007.97
2018-12-27T10:49:19.449Z,1008.01
2018-12-27T10:50:29.499Z,1007.95
2018-12-27T10:51:39.587Z,1007.88
2018-12-27T10:52:49.679Z,1007.92
2018-12-27T10:53:59.748Z,1007.83
2018-12-27T10:55:09.884Z,1007.85
2018-12-27T10:56:19.707Z,1007.81
2018-12-27T10:57:29.791Z,1007.8
2018-12-27T10:58:42.485Z,1007.72
2018-12-27T10:59:52.035Z,1007.72
2018-12-27T11:01:02.062Z,1007.69
2018-12-27T11:02:12.132Z,1007.65
2018-12-27T11:03:21.944Z,1007.64
2018-12-27T11:04:38.163Z,1007.6
2018-12-27T11:05:48.680Z,1007.57
2018-12-27T11:06:59.025Z,1007.58
2018-12-27T11:08:09.111Z,1007.51
2018-12-27T11:09:19.198Z,1007.47
2018-12-27T11:10:29.255Z,1007.46
2018-12-27T11:11:39.302Z,1007.41
2018-12-27T11:12:48.621Z,1007.38
2018-12-27T11:13:58.690Z,1007.38
2018-12-27T11:15:08.757Z,1007.35
2018-12-27T11:16:18.851Z,1007.32
2018-12-27T11:17:28.949Z,1007.27
2018-12-27T11:18:38.784Z,1007.25
2018-12-27T11:19:48.852Z,1007.26
2018-12-27T11:20:58.956Z,1007.22
2018-12-27T11:22:09.044Z,1007.22
2018-12-27T11:23:19.141Z,1007.24
2018-12-27T11:24:29.209Z,1007.21
2018-12-27T11:25:39.268Z,1007.2
2018-12-27T11:26:49.336Z,1007.2
2018-12-27T11:27:59.404Z,1007.17
2018-12-27T11:29:09.474Z,1007.14
2018-12-27T11:30:19.562Z,1007.12
2018-12-27T11:31:29.658Z,1007.11
2018-12-27T11:32:39.516Z,1007.11
2018-12-27T11:33:49.606Z,1007.08
2018-12-27T11:34:59.442Z,1007.04
2018-12-27T11:36:09.270Z,1007.04
2018-12-27T11:37:25.135Z,1007.01
2018-12-27T11:38:35.294Z,1006.94
2018-12-27T11:39:45.118Z,1006.93
2018-12-27T11:40:55.197Z,1006.9
2018-12-27T11:42:05.429Z,1006.92
2018-12-27T11:43:15.508Z,1006.91
2018-12-27T11:44:25.592Z,1006.93
2018-12-27T11:45:35.726Z,1006.97
2018-12-27T11:46:45.791Z,1006.99
2018-12-27T11:47:55.960Z,1007.02
2018-12-27T11:49:06.044Z,1006.96
2018-12-27T11:50:16.130Z,1007
2018-12-27T11:51:26.293Z,1006.99
2018-12-27T11:52:35.861Z,1007.05
2018-12-27T11:53:45.702Z,1007.06
2018-12-27T11:54:55.765Z,1007.1
2018-12-27T11:56:05.848Z,1007.08
2018-12-27T11:57:15.955Z,1007.11
2018-12-27T11:58:26.022Z,1007.04
2018-12-27T11:59:35.616Z,1007.1
2018-12-27T12:00:45.446Z,1007.08
2018-12-27T12:01:55.518Z,1007.08
2018-12-27T12:03:05.639Z,1007.12
2018-12-27T12:04:15.468Z,1007.11
2018-12-27T12:05:25.540Z,1007.1
2018-12-27T12:06:35.341Z,1007.07
2018-12-27T12:07:45.443Z,1007.15
2018-12-27T12:08:55.516Z,1007.14
2018-12-27T12:10:05.601Z,1007.12
2018-12-27T12:11:15.682Z,1007.11
2018-12-27T12:12:25.503Z,1007.12
2018-12-27T12:13:35.314Z,1007.1
2018-12-27T12:14:46.393Z,1007.09
2018-12-27T12:15:56.487Z,1007.11
2018-12-27T12:17:06.620Z,1007.07
2018-12-27T12:18:16.738Z,1007.07
2018-12-27T12:19:26.846Z,1007.09
2018-12-27T12:20:36.666Z,1007.1
2018-12-27T12:21:46.852Z,1007.13
2018-12-27T12:22:56.934Z,1007.1
2018-12-27T12:24:07.012Z,1007.18
2018-12-27T12:25:17.083Z,1007.09
2018-12-27T12:26:26.912Z,1007.08
2018-12-27T12:27:37.000Z,1007.18
2018-12-27T12:28:47.129Z,1007.17
2018-12-27T12:29:57.243Z,1007.16
2018-12-27T12:31:07.321Z,1007.16
2018-12-27T12:32:17.441Z,1007.18
2018-12-27T12:33:27.540Z,1007.14
2018-12-27T12:34:39.026Z,1007.16
2018-12-27T12:35:49.196Z,1007.18
2018-12-27T12:36:59.293Z,1007.17
2018-12-27T12:38:16.831Z,1007.21
2018-12-27T12:39:26.900Z,1007.16
2018-12-27T12:40:36.986Z,1007.15
2018-12-27T12:41:47.061Z,1007.17
2018-12-27T12:42:57.909Z,1007.14
2018-12-27T12:44:09.886Z,1007.17
2018-12-27T12:45:20.004Z,1007.16
2018-12-27T12:46:30.085Z,1007.11
2018-12-27T12:47:40.150Z,1007.11
2018-12-27T12:48:49.972Z,1007.07
2018-12-27T12:50:00.087Z,1007.01
2018-12-27T12:51:10.245Z,1007.04
2018-12-27T12:52:20.367Z,1006.97
2018-12-27T12:53:30.233Z,1006.95
2018-12-27T12:54:40.072Z,1006.92
2018-12-27T12:55:49.889Z,1006.91
2018-12-27T12:56:59.444Z,1006.85
2018-12-27T12:58:09.546Z,1006.9
2018-12-27T12:59:19.624Z,1006.87
2018-12-27T13:00:29.832Z,1006.93
2018-12-27T13:01:39.639Z,1006.9
2018-12-27T13:02:49.457Z,1006.9
2018-12-27T13:03:59.526Z,1006.9
2018-12-27T13:05:09.613Z,1006.92
2018-12-27T13:06:19.714Z,1006.92
2018-12-27T13:07:29.789Z,1006.9
2018-12-27T13:08:41.060Z,1006.9
2018-12-27T13:09:51.894Z,1006.93
2018-12-27T13:11:03.025Z,1006.89
2018-12-27T13:12:13.114Z,1006.87
2018-12-27T13:13:22.950Z,1006.84
2018-12-27T13:14:32.766Z,1006.85
2018-12-27T13:15:42.863Z,1006.86
2018-12-27T13:16:52.942Z,1006.81
2018-12-27T13:18:03.012Z,1006.83
2018-12-27T13:19:13.079Z,1006.86
2018-12-27T13:20:22.706Z,1006.82
2018-12-27T13:21:32.545Z,1006.77
2018-12-27T13:22:42.612Z,1006.76
2018-12-27T13:23:52.769Z,1006.76
2018-12-27T13:25:02.859Z,1006.77
2018-12-27T13:26:12.925Z,1006.76
2018-12-27T13:27:22.754Z,1006.76
2018-12-27T13:28:32.577Z,1006.77
2018-12-27T13:29:42.668Z,1006.74
2018-12-27T13:30:52.751Z,1006.77
2018-12-27T13:32:02.808Z,1006.76
2018-12-27T13:33:12.956Z,1006.75
2018-12-27T13:34:23.067Z,1006.72
2018-12-27T13:35:34.012Z,1006.74
2018-12-27T13:36:44.087Z,1006.72
2018-12-27T13:37:53.634Z,1006.73
2018-12-27T13:39:03.721Z,1006.7
2018-12-27T13:40:13.807Z,1006.68
2018-12-27T13:41:23.888Z,1006.64
2018-12-27T13:42:34.027Z,1006.69
2018-12-27T13:43:44.114Z,1006.67
2018-12-27T13:44:54.207Z,1006.69
2018-12-27T13:46:04.030Z,1006.67
2018-12-27T13:47:13.598Z,1006.62
2018-12-27T13:48:23.665Z,1006.63
2018-12-27T13:49:33.747Z,1006.64
2018-12-27T13:50:43.879Z,1006.63
2018-12-27T13:51:54.002Z,1006.63
2018-12-27T13:53:04.118Z,1006.65
2018-12-27T13:54:14.194Z,1006.67
2018-12-27T13:55:24.275Z,1006.65
2018-12-27T13:56:34.343Z,1006.64
2018-12-27T13:57:44.400Z,1006.65
2018-12-27T13:58:54.241Z,1006.64
2018-12-27T14:00:04.513Z,1006.67
2018-12-27T14:01:15.068Z,1006.67
2018-12-27T14:02:25.143Z,1006.66
2018-12-27T14:03:35.216Z,1006.64
2018-12-27T14:04:45.287Z,1006.62
2018-12-27T14:05:55.365Z,1006.54
2018-12-27T14:07:05.570Z,1006.58
2018-12-27T14:08:15.670Z,1006.59
2018-12-27T14:09:26.107Z,1006.62
2018-12-27T14:10:36.233Z,1006.55
2018-12-27T14:11:46.283Z,1006.6
2018-12-27T14:12:56.333Z,1006.6
2018-12-27T14:14:06.404Z,1006.6
2018-12-27T14:15:16.601Z,1006.64
2018-12-27T14:16:26.710Z,1006.56
2018-12-27T14:17:36.787Z,1006.59
2018-12-27T14:18:46.879Z,1006.63
2018-12-27T14:19:56.967Z,1006.63
2018-12-27T14:21:06.795Z,1006.67
2018-12-27T14:22:16.900Z,1006.65
2018-12-27T14:23:26.981Z,1006.69
2018-12-27T14:24:37.046Z,1006.67
2018-12-27T14:25:46.848Z,1006.67
2018-12-27T14:26:56.937Z,1006.66
2018-12-27T14:28:07.146Z,1006.69
2018-12-27T14:29:17.245Z,1006.69
2018-12-27T14:30:27.058Z,1006.71
2018-12-27T14:31:37.129Z,1006.71
2018-12-27T14:32:47.243Z,1006.65
2018-12-27T14:33:57.320Z,1006.68
2018-12-27T14:35:07.597Z,1006.66
2018-12-27T14:36:17.714Z,1006.65
2018-12-27T14:37:27.804Z,1006.7
2018-12-27T14:38:37.898Z,1006.67
2018-12-27T14:39:49.343Z,1006.67
2018-12-27T14:40:59.420Z,1006.6
2018-12-27T14:42:09.512Z,1006.64